createdAt,value
2019-03-13T00:04:17.063Z,1.30
2019-03-13T00:10:19.804Z,1.30
2019-03-13T00:16:22.549Z,1.30
2019-03-13T00:22:25.340Z,1.27
2019-03-13T00:28:28.071Z,1.20
2019-03-13T00:34:30.816Z,1.37
2019-03-13T00:40:33.545Z,1.20
2019-03-13T00:46:36.319Z,1.07
2019-03-13T00:52:39.052Z,1.37
2019-03-13T00:58:41.793Z,1.27
2019-03-13T01:04:44.544Z,1.20
2019-03-13T01:10:47.312Z,1.30
2019-03-13T01:16:50.040Z,1.10
2019-03-13T01:22:52.768Z,1.20
2019-03-13T01:28:55.570Z,1.37
2019-03-13T01:34:58.368Z,1.00
2019-03-13T01:41:01.153Z,1.20
2019-03-13T01:47:04.156Z,1.10
2019-03-13T01:53:26.331Z,1.20
2019-03-13T02:05:30.947Z,1.07
2019-03-13T02:11:33.788Z,0.83
2019-03-13T02:17:36.504Z,0.90
2019-03-13T02:23:39.227Z,1.10
2019-03-13T02:29:41.977Z,1.10
2019-03-13T02:35:44.707Z,1.13
2019-03-13T02:41:47.512Z,0.90
2019-03-13T02:47:50.282Z,1.00
2019-03-13T02:53:53.044Z,1.00
2019-03-13T02:59:55.850Z,0.93
2019-03-13T03:05:58.587Z,0.90
2019-03-13T03:12:01.396Z,1.00
2019-03-13T03:18:04.132Z,0.80
2019-03-13T03:24:06.907Z,0.90
2019-03-13T03:30:18.863Z,1.00
2019-03-13T03:36:21.652Z,0.90
2019-03-13T03:42:24.393Z,0.80
2019-03-13T03:48:27.213Z,0.90
2019-03-13T03:54:29.960Z,0.70
2019-03-13T04:00:32.701Z,0.93
2019-03-13T04:06:35.730Z,0.80
2019-03-13T04:12:38.469Z,0.80
2019-03-13T04:18:41.201Z,0.80
2019-03-13T04:24:44.177Z,0.90
2019-03-13T04:30:46.908Z,0.70
2019-03-13T04:36:49.659Z,0.87
2019-03-13T04:42:52.694Z,0.80
2019-03-13T04:48:55.452Z,0.70
2019-03-13T04:54:58.183Z,0.80
2019-03-13T05:01:01.148Z,0.80
2019-03-13T05:07:03.881Z,0.60
2019-03-13T05:13:06.977Z,0.60
2019-03-13T05:19:09.886Z,0.70
2019-03-13T05:25:12.924Z,0.70
2019-03-13T05:31:15.659Z,0.70
2019-03-13T05:37:18.644Z,0.70
2019-03-13T05:43:21.511Z,0.60
2019-03-13T05:49:24.484Z,0.63
2019-03-13T05:55:27.223Z,0.70
2019-03-13T06:01:29.942Z,0.50
2019-03-13T06:07:34.500Z,0.60
2019-03-13T06:13:37.288Z,0.50
2019-03-13T06:19:40.081Z,0.60
2019-03-13T06:25:42.920Z,0.60
2019-03-13T06:31:45.696Z,0.50
2019-03-13T06:37:48.424Z,0.50
2019-03-13T06:43:51.152Z,0.50
2019-03-13T06:49:53.904Z,0.70
2019-03-13T06:55:56.656Z,0.60
2019-03-13T07:01:59.391Z,0.80
2019-03-13T07:08:02.186Z,0.60
2019-03-13T07:14:04.908Z,0.70
2019-03-13T07:20:09.408Z,0.40
2019-03-13T07:26:12.137Z,0.60
2019-03-13T07:32:14.880Z,0.70
2019-03-13T07:38:17.636Z,0.67
2019-03-13T07:44:20.423Z,0.60
2019-03-13T07:50:23.168Z,0.50
2019-03-13T07:56:27.283Z,0.50
2019-03-13T08:02:30.004Z,0.83
2019-03-13T08:08:32.741Z,0.47
2019-03-13T08:14:35.503Z,0.57
2019-03-13T08:20:38.255Z,0.60
2019-03-13T08:26:41.008Z,0.77
2019-03-13T08:32:43.748Z,0.80
2019-03-13T08:38:46.839Z,0.53
2019-03-13T08:44:49.642Z,0.70
2019-03-13T08:50:52.463Z,0.50
2019-03-13T08:56:55.246Z,0.60
2019-03-13T09:02:57.972Z,0.60
2019-03-13T09:09:00.784Z,0.70
2019-03-13T09:15:06.736Z,0.60
2019-03-13T09:21:09.488Z,0.57
2019-03-13T09:27:12.235Z,0.70
2019-03-13T09:33:15.023Z,0.50
2019-03-13T09:39:17.780Z,0.50
2019-03-13T09:45:20.489Z,0.40
2019-03-13T09:51:29.313Z,0.50
2019-03-13T09:57:32.107Z,0.47
2019-03-13T10:03:34.860Z,0.70
2019-03-13T10:09:37.944Z,0.60
2019-03-13T10:15:40.718Z,0.43
2019-03-13T10:21:43.462Z,0.60
2019-03-13T10:27:46.203Z,0.50
2019-03-13T10:33:49.020Z,0.50
2019-03-13T10:39:51.777Z,0.50
2019-03-13T10:45:55.489Z,0.50
2019-03-13T10:51:58.236Z,0.50
2019-03-13T10:58:00.987Z,0.57
2019-03-13T11:04:03.752Z,0.67
2019-03-13T11:10:09.405Z,0.50
2019-03-13T11:16:12.141Z,0.47
2019-03-13T11:22:14.865Z,0.50
2019-03-13T11:28:17.639Z,0.40
2019-03-13T11:34:39.852Z,0.30
2019-03-13T11:40:42.577Z,0.60
2019-03-13T11:46:45.457Z,0.47
2019-03-13T11:52:48.234Z,0.40
2019-03-13T11:58:51.300Z,0.40
2019-03-13T12:04:54.139Z,0.50
2019-03-13T12:10:56.957Z,0.40
2019-03-13T12:17:00.623Z,0.27
2019-03-13T12:23:03.375Z,0.50
2019-03-13T12:29:06.116Z,0.53
2019-03-13T12:35:08.848Z,0.43
2019-03-13T12:41:11.585Z,0.60
2019-03-13T12:47:14.312Z,0.30
2019-03-13T12:53:17.046Z,0.50
2019-03-13T12:59:20.060Z,0.60
2019-03-13T13:05:22.793Z,0.63
2019-03-13T13:11:25.617Z,0.40
2019-03-13T13:17:28.349Z,0.40
2019-03-13T13:23:31.073Z,0.40
2019-03-13T13:29:33.796Z,0.50
2019-03-13T13:35:56.009Z,0.40
2019-03-13T13:41:58.804Z,0.63
2019-03-13T13:48:06.684Z,0.40
2019-03-13T13:54:09.424Z,0.60
2019-03-13T14:00:12.188Z,0.60
2019-03-13T14:06:14.924Z,0.50
2019-03-13T14:12:20.014Z,0.50
2019-03-13T14:18:22.187Z,0.47
2019-03-13T14:24:24.915Z,0.43
2019-03-13T14:30:27.742Z,0.40
2019-03-13T14:36:30.508Z,0.57
2019-03-13T14:42:33.247Z,0.60
2019-03-13T14:48:35.977Z,0.53
2019-03-13T14:54:38.715Z,0.40
2019-03-13T15:00:41.795Z,0.50
2019-03-13T15:06:44.528Z,0.60
2019-03-13T15:12:47.260Z,0.47
2019-03-13T15:18:49.992Z,0.50
2019-03-13T15:24:52.800Z,0.80
2019-03-13T15:30:55.528Z,0.60
2019-03-13T15:36:58.268Z,0.60
2019-03-13T15:43:01.082Z,0.60
2019-03-13T15:49:03.824Z,0.60
2019-03-13T15:55:09.290Z,0.60
2019-03-13T16:01:12.017Z,0.80
2019-03-13T16:07:14.739Z,0.70
2019-03-13T16:13:17.722Z,1.00
2019-03-13T16:19:20.454Z,0.80
2019-03-13T16:25:23.441Z,0.80
2019-03-13T16:31:26.453Z,0.90
2019-03-13T16:37:29.175Z,0.80
2019-03-13T16:43:31.911Z,0.97
2019-03-13T16:49:34.647Z,0.60
2019-03-13T16:55:37.376Z,0.80
2019-03-13T17:01:40.124Z,0.67
2019-03-13T17:07:42.867Z,0.70
2019-03-13T17:13:45.600Z,1.07
2019-03-13T17:19:48.360Z,0.80
2019-03-13T17:25:54.065Z,0.90
2019-03-13T17:31:56.791Z,0.70
2019-03-13T17:37:59.537Z,0.73
2019-03-13T17:44:02.272Z,0.73
2019-03-13T17:50:08.444Z,0.70
2019-03-13T17:56:11.184Z,0.87
2019-03-13T18:02:13.925Z,0.50
2019-03-13T18:08:16.723Z,0.50
2019-03-13T18:14:19.791Z,0.63
2019-03-13T18:20:23.449Z,0.80
2019-03-13T18:26:26.243Z,0.70
2019-03-13T18:32:41.095Z,0.67
2019-03-13T18:38:33.530Z,0.70
2019-03-13T18:44:37.913Z,0.70
2019-03-13T18:50:40.714Z,0.80
2019-03-13T18:56:43.450Z,0.77
2019-03-13T19:02:46.168Z,0.50
2019-03-13T19:08:48.885Z,0.70
2019-03-13T19:14:51.965Z,0.70
2019-03-13T19:20:54.765Z,0.70
2019-03-13T19:26:57.488Z,0.70
2019-03-13T19:33:00.236Z,0.77
2019-03-13T19:39:02.963Z,0.60
2019-03-13T19:45:11.507Z,0.50
2019-03-13T19:51:14.256Z,0.60
2019-03-13T19:57:16.991Z,0.67
2019-03-13T20:03:19.739Z,0.80
2019-03-13T20:09:22.744Z,0.70
2019-03-13T20:15:26.941Z,0.57
2019-03-13T20:21:31.215Z,0.67
2019-03-13T20:27:34.442Z,0.90
2019-03-13T20:33:37.204Z,0.70
2019-03-13T20:39:39.996Z,0.90
2019-03-13T20:45:42.718Z,0.60
2019-03-13T20:51:45.449Z,0.70
2019-03-13T20:57:48.269Z,0.60
2019-03-13T21:03:51.182Z,0.70
2019-03-13T21:09:55.508Z,0.60
2019-03-13T21:15:58.567Z,0.60
2019-03-13T21:22:04.383Z,0.80
2019-03-13T21:28:06.102Z,0.50
2019-03-13T21:34:08.824Z,0.70
2019-03-13T21:40:20.908Z,0.60
2019-03-13T21:46:23.646Z,0.57
2019-03-13T21:52:26.347Z,0.43
2019-03-13T21:58:29.360Z,0.50
2019-03-13T22:04:32.155Z,0.70
2019-03-13T22:10:34.882Z,0.50
2019-03-13T22:16:37.612Z,0.70
2019-03-13T22:22:40.358Z,0.40
2019-03-13T22:28:43.100Z,0.70
2019-03-13T22:34:45.827Z,0.50
2019-03-13T22:41:01.950Z,0.60
2019-03-13T22:47:04.673Z,0.57
2019-03-13T22:53:07.391Z,0.63
2019-03-13T22:59:10.121Z,0.60
2019-03-13T23:05:12.841Z,0.50
2019-03-13T23:11:15.568Z,0.60
2019-03-13T23:17:18.295Z,0.43
2019-03-13T23:23:21.043Z,0.57
2019-03-13T23:29:23.792Z,0.50
2019-03-13T23:35:26.838Z,0.50
2019-03-13T23:41:29.568Z,0.43
2019-03-13T23:47:32.293Z,0.50
2019-03-13T23:53:35.035Z,0.57
2019-03-13T23:59:38.072Z,0.60
